createdAt,value
2019-04-07T00:01:29.233Z,47.73
2019-04-07T00:06:30.871Z,47.71
2019-04-07T00:11:32.706Z,47.70
2019-04-07T00:16:34.285Z,47.65
2019-04-07T00:21:36.440Z,47.56
2019-04-07T00:26:38.085Z,47.58
2019-04-07T00:31:41.523Z,47.50
2019-04-07T00:36:44.776Z,47.43
2019-04-07T00:41:46.549Z,47.54
2019-04-07T00:46:48.674Z,47.46
2019-04-07T00:51:51.906Z,47.38
2019-04-07T00:56:53.618Z,47.34
2019-04-07T01:01:55.399Z,47.31
2019-04-07T01:06:57.500Z,47.30
2019-04-07T01:11:59.541Z,47.30
2019-04-07T01:17:01.215Z,47.34
2019-04-07T01:22:03.906Z,47.27
2019-04-07T01:27:05.648Z,47.20
2019-04-07T01:32:07.369Z,47.28
2019-04-07T01:37:08.898Z,47.18
2019-04-07T01:42:20.184Z,47.30
2019-04-07T01:47:29.654Z,47.18
2019-04-07T01:52:32.936Z,47.08
2019-04-07T01:57:34.566Z,46.99
2019-04-07T02:02:42.278Z,47.08
2019-04-07T02:07:45.821Z,47.12
2019-04-07T02:12:47.818Z,47.06
2019-04-07T02:18:09.225Z,47.02
2019-04-07T02:23:29.169Z,47.04
2019-04-07T02:28:30.887Z,47.13
2019-04-07T02:33:34.941Z,47.09
2019-04-07T02:38:36.886Z,47.12
2019-04-07T02:43:40.379Z,47.17
2019-04-07T02:48:44.641Z,47.20
2019-04-07T02:53:48.344Z,47.21
2019-04-07T02:58:54.963Z,47.21
2019-04-07T03:04:05.404Z,47.23
2019-04-07T03:09:09.037Z,47.23
2019-04-07T03:14:15.719Z,47.25
2019-04-07T03:19:19.376Z,47.23
2019-04-07T03:24:26.549Z,47.23
2019-04-07T03:29:33.877Z,47.25
2019-04-07T03:34:38.749Z,47.29
2019-04-07T03:39:46.593Z,47.33
2019-04-07T03:44:57.069Z,47.30
2019-04-07T03:50:07.147Z,47.35
2019-04-07T03:55:15.323Z,47.38
2019-04-07T04:01:05.387Z,47.51
2019-04-07T04:06:09.137Z,47.63
2019-04-07T04:11:29.598Z,47.82
2019-04-07T04:16:32.227Z,47.90
2019-04-07T04:21:33.848Z,48.01
2019-04-07T04:26:37.775Z,48.46
2019-04-07T04:31:40.338Z,48.50
2019-04-07T04:36:42.265Z,49.28
2019-04-07T04:41:44.691Z,49.69
2019-04-07T04:46:47.298Z,49.87
2019-04-07T04:51:50.118Z,49.63
2019-04-07T04:56:52.305Z,50.10
2019-04-07T05:01:53.900Z,50.13
2019-04-07T05:06:55.512Z,49.80
2019-04-07T05:11:58.733Z,50.31
2019-04-07T05:17:00.714Z,50.55
2019-04-07T05:22:02.531Z,50.02
2019-04-07T05:27:04.129Z,49.86
2019-04-07T05:32:05.774Z,49.88
2019-04-07T05:37:07.598Z,49.64
2019-04-07T05:42:09.231Z,50.11
2019-04-07T05:47:12.388Z,50.03
2019-04-07T05:52:14.866Z,50.02
2019-04-07T05:57:16.540Z,49.90
2019-04-07T06:02:18.890Z,49.61
2019-04-07T06:07:21.219Z,49.66
2019-04-07T06:12:23.475Z,50.00
2019-04-07T06:17:26.360Z,49.94
2019-04-07T06:22:29.311Z,49.96
2019-04-07T06:27:31.379Z,50.59
2019-04-07T06:32:36.113Z,50.89
2019-04-07T06:37:37.342Z,50.70
2019-04-07T06:42:40.463Z,50.14
2019-04-07T06:47:46.633Z,53.93
2019-04-07T06:53:02.263Z,51.75
2019-04-07T06:58:08.353Z,50.64
2019-04-07T07:03:19.659Z,50.44
2019-04-07T07:08:23.565Z,49.94
2019-04-07T07:13:34.309Z,50.42
2019-04-07T07:18:54.673Z,49.83
2019-04-07T07:23:55.823Z,50.42
2019-04-07T07:28:57.601Z,49.12
2019-04-07T07:33:59.374Z,49.64
2019-04-07T07:39:02.461Z,48.80
2019-04-07T07:44:08.438Z,49.34
2019-04-07T07:49:10.369Z,49.14
2019-04-07T07:54:14.259Z,48.99
2019-04-07T07:59:15.594Z,49.26
2019-04-07T08:04:17.398Z,49.71
2019-04-07T08:09:23.678Z,50.71
2019-04-07T08:14:22.689Z,50.70
2019-04-07T08:19:29.193Z,50.21
2019-04-07T08:24:28.294Z,50.24
2019-04-07T08:29:30.916Z,50.11
2019-04-07T08:34:32.981Z,50.42
2019-04-07T08:39:36.030Z,50.17
2019-04-07T08:44:38.243Z,49.61
2019-04-07T08:49:40.401Z,48.99
2019-04-07T08:54:42.217Z,47.87
2019-04-07T08:59:43.955Z,48.67
2019-04-07T09:04:49.955Z,45.96
2019-04-07T09:09:49.981Z,47.37
2019-04-07T09:14:51.807Z,47.90
2019-04-07T09:19:58.287Z,47.76
2019-04-07T09:25:20.404Z,47.25
2019-04-07T09:30:40.886Z,47.38
2019-04-07T09:36:00.741Z,47.23
2019-04-07T09:41:08.473Z,46.76
2019-04-07T09:46:29.026Z,47.11
2019-04-07T09:51:37.640Z,46.86
2019-04-07T09:56:46.157Z,47.20
2019-04-07T10:01:59.475Z,47.39
2019-04-07T10:07:16.174Z,47.37
2019-04-07T10:12:28.201Z,47.07
2019-04-07T10:17:32.934Z,46.15
2019-04-07T10:22:37.471Z,46.06
2019-04-07T10:27:41.105Z,46.41
2019-04-07T10:32:48.875Z,46.50
2019-04-07T10:37:53.208Z,46.51
2019-04-07T10:42:57.727Z,46.60
2019-04-07T10:48:19.078Z,46.87
2019-04-07T10:53:22.823Z,46.16
2019-04-07T10:58:24.839Z,44.20
2019-04-07T11:03:44.410Z,45.35
2019-04-07T11:08:53.624Z,45.47
2019-04-07T11:14:06.879Z,45.93
2019-04-07T11:19:08.939Z,46.14
2019-04-07T11:24:18.699Z,46.54
2019-04-07T11:29:20.786Z,46.39
2019-04-07T11:34:30.475Z,46.51
2019-04-07T11:39:34.112Z,46.70
2019-04-07T11:44:45.506Z,47.01
2019-04-07T11:50:04.934Z,47.35
2019-04-07T11:55:27.342Z,47.39
2019-04-07T12:00:48.815Z,47.51
2019-04-07T12:06:00.280Z,47.90
2019-04-07T12:11:20.238Z,48.30
2019-04-07T12:16:33.742Z,48.57
2019-04-07T12:21:49.645Z,48.27
2019-04-07T12:26:54.869Z,48.46
2019-04-07T12:32:13.459Z,48.50
2019-04-07T12:37:18.650Z,47.54
2019-04-07T12:42:31.987Z,48.01
2019-04-07T12:47:36.612Z,48.44
2019-04-07T12:52:55.429Z,47.95
2019-04-07T12:58:10.805Z,47.69
2019-04-07T13:03:18.143Z,46.84
2019-04-07T13:08:32.162Z,47.62
2019-04-07T13:13:37.434Z,46.09
2019-04-07T13:18:45.626Z,46.05
2019-04-07T13:23:51.756Z,45.62
2019-04-07T13:28:59.165Z,45.58
2019-04-07T13:34:04.274Z,44.62
2019-04-07T13:39:10.153Z,43.50
2019-04-07T13:44:22.853Z,43.84
2019-04-07T13:49:27.856Z,43.26
2019-04-07T13:54:32.176Z,43.95
2019-04-07T13:59:42.615Z,43.67
2019-04-07T14:04:56.277Z,43.38
2019-04-07T14:10:13.167Z,43.69
2019-04-07T14:15:33.644Z,43.30
2019-04-07T14:20:37.568Z,43.82
2019-04-07T14:25:53.589Z,43.68
2019-04-07T14:31:05.454Z,43.92
2019-04-07T14:36:19.630Z,44.26
2019-04-07T14:41:35.690Z,43.45
2019-04-07T14:46:56.229Z,42.22
2019-04-07T14:52:03.841Z,43.28
2019-04-07T14:57:13.290Z,42.96
2019-04-07T15:02:15.750Z,42.21
2019-04-07T15:07:36.587Z,42.16
2019-04-07T15:12:40.350Z,42.96
2019-04-07T15:17:42.485Z,43.43
2019-04-07T15:22:46.138Z,43.58
2019-04-07T15:27:47.768Z,44.66
2019-04-07T15:32:50.380Z,45.19
2019-04-07T15:37:52.520Z,45.96
2019-04-07T15:42:54.181Z,45.78
2019-04-07T15:47:56.458Z,45.63
2019-04-07T15:52:58.534Z,45.06
2019-04-07T15:58:00.403Z,46.33
2019-04-07T16:03:02.337Z,45.52
2019-04-07T16:08:04.274Z,46.22
2019-04-07T16:13:06.643Z,46.48
2019-04-07T16:18:08.743Z,45.15
2019-04-07T16:23:10.821Z,48.36
2019-04-07T16:28:14.662Z,48.32
2019-04-07T16:33:17.459Z,47.91
2019-04-07T16:38:19.563Z,47.45
2019-04-07T16:43:22.072Z,47.57
2019-04-07T16:48:24.697Z,47.88
2019-04-07T16:53:27.002Z,47.88
2019-04-07T16:58:30.710Z,47.80
2019-04-07T17:03:33.079Z,48.73
2019-04-07T17:08:34.619Z,48.94
2019-04-07T17:13:41.859Z,48.80
2019-04-07T17:18:43.084Z,49.03
2019-04-07T17:23:45.621Z,48.85
2019-04-07T17:28:48.833Z,50.69
2019-04-07T17:33:51.977Z,47.07
2019-04-07T17:39:08.477Z,46.13
2019-04-07T17:44:29.736Z,45.49
2019-04-07T17:49:38.769Z,46.41
2019-04-07T17:54:48.907Z,46.41
2019-04-07T17:59:54.871Z,45.24
2019-04-07T18:05:08.503Z,46.39
2019-04-07T18:10:12.317Z,45.80
2019-04-07T18:15:26.332Z,45.95
2019-04-07T18:20:46.738Z,45.40
2019-04-07T18:25:54.173Z,47.08
2019-04-07T18:31:03.060Z,47.28
2019-04-07T18:36:15.792Z,45.84
2019-04-07T18:41:19.800Z,45.17
2019-04-07T18:46:28.936Z,45.33
2019-04-07T18:51:46.634Z,45.21
2019-04-07T18:56:54.576Z,45.17
2019-04-07T19:02:04.406Z,45.34
2019-04-07T19:07:06.234Z,44.75
2019-04-07T19:12:16.778Z,44.68
2019-04-07T19:17:17.102Z,44.86
2019-04-07T19:22:23.585Z,45.13
2019-04-07T19:27:39.138Z,45.03
2019-04-07T19:32:48.606Z,44.45
2019-04-07T19:38:11.035Z,43.68
2019-04-07T19:43:30.397Z,43.60
2019-04-07T19:48:39.046Z,44.83
2019-04-07T19:53:43.145Z,45.35
2019-04-07T19:58:51.296Z,45.19
2019-04-07T20:04:10.871Z,44.11
2019-04-07T20:09:17.130Z,43.73
2019-04-07T20:14:46.020Z,43.76
2019-04-07T20:19:41.455Z,43.28
2019-04-07T20:25:02.009Z,44.68
2019-04-07T20:30:17.792Z,43.47
2019-04-07T20:35:35.002Z,44.41
2019-04-07T20:40:39.668Z,44.21
2019-04-07T20:45:51.615Z,44.87
2019-04-07T20:51:04.670Z,44.54
2019-04-07T20:56:27.088Z,43.33
2019-04-07T21:01:59.909Z,44.85
2019-04-07T21:06:51.069Z,45.19
2019-04-07T21:11:59.672Z,44.98
2019-04-07T21:17:19.801Z,45.31
2019-04-07T21:22:37.652Z,45.17
2019-04-07T21:27:44.037Z,45.35
2019-04-07T21:32:49.768Z,43.50
2019-04-07T21:37:58.884Z,43.50
2019-04-07T21:43:02.639Z,45.53
2019-04-07T21:48:07.026Z,44.67
2019-04-07T21:53:16.228Z,44.58
2019-04-07T21:58:36.460Z,45.01
2019-04-07T22:03:53.186Z,43.44
2019-04-07T22:08:56.661Z,44.35
2019-04-07T22:13:58.227Z,44.20
2019-04-07T22:18:59.946Z,44.08
2019-04-07T22:24:02.199Z,43.66
2019-04-07T22:29:05.547Z,43.86
2019-04-07T22:34:07.327Z,43.31
2019-04-07T22:39:09.006Z,43.34
2019-04-07T22:44:11.353Z,43.38
2019-04-07T22:49:13.503Z,44.06
2019-04-07T22:54:15.443Z,43.06
2019-04-07T22:59:17.568Z,43.36
2019-04-07T23:04:20.228Z,43.60
2019-04-07T23:09:22.999Z,43.72
2019-04-07T23:14:25.403Z,44.28
2019-04-07T23:19:27.100Z,44.80
2019-04-07T23:24:28.887Z,43.42
2019-04-07T23:29:30.621Z,43.63
2019-04-07T23:34:32.978Z,43.62
2019-04-07T23:39:35.560Z,44.31
2019-04-07T23:44:37.381Z,43.40
2019-04-07T23:49:39.046Z,43.62
2019-04-07T23:54:40.633Z,43.47
2019-04-07T23:59:42.213Z,43.03
